Time;durP1;ratioP1;P1;durP2;ratioP2;P2;SDS_P1;SDS_P2;PMS_P1;PMS_P2;Temp;Humidity;BMP_temperature;BMP_pressure;BME280_temperature;BME280_humidity;BME280_pressure;Samples;Min_cycle;Max_cycle;Signal;HPM_P1;HPM_P2
2022/01/15 00:01:57;;;;;;;;;;;;;;;;;;5074236;28;19983;-81
2022/01/15 00:04:24;;;;;;;;;;;;;;;;;;5074038;28;20491;-81
2022/01/15 00:06:51;;;;;;;;;;;;;;;;;;5073018;28;20059;-80
2022/01/15 00:09:19;;;;;;;;;;;;;;;;;;5074157;28;20031;-80
2022/01/15 00:11:46;;;;;;;;;;;;;;;;;;5074133;28;19956;-80
2022/01/15 00:14:20;;;;;;;;;;;;;;;;;;5073963;28;20492;-80
2022/01/15 00:16:50;;;;;;;;;;;;;;;;;;5074045;28;19949;-80
2022/01/15 00:19:19;;;;;;;;;;;;;;;;;;5073798;28;19956;-80
2022/01/15 00:21:46;;;;;;;;;;;;;;;;;;5074065;28;19947;-80
2022/01/15 00:24:15;;;;;;;;;;;;;;;;;;5072821;28;20042;-81
2022/01/15 00:26:42;;;;;;;;;;;;;;;;;;5074996;28;19971;-80
2022/01/15 00:29:09;;;;;;;;;;;;;;;;;;5093741;28;20039;-81
2022/01/15 00:31:37;;;;;;;;;;;;;;;;;;5093800;28;20047;-80
2022/01/15 00:34:04;;;;;;;;;;;;;;;;;;5094253;28;19993;-81
2022/01/15 00:36:31;;;;;;;;;;;;;;;;;;5093568;28;20043;-80
2022/01/15 00:38:58;;;;;;;;;;;;;;;;;;5094006;28;20046;-80
2022/01/15 00:41:26;;;;;;;;;;;;;;;;;;5079139;28;20504;-80
2022/01/15 00:43:54;;;;;;;;;;;;;;;;;;5073581;28;19966;-81
2022/01/15 00:46:21;;;;;;;;;;;;;;;;;;5073466;28;19987;-80
2022/01/15 00:48:48;;;;;;;;;;;;;;;;;;5073516;28;20040;-80
2022/01/15 00:51:15;;;;;;;;;;;;;;;;;;5073073;28;20072;-80
2022/01/15 00:53:42;;;;;;;;;;;;;;;;;;5073220;28;20395;-80
2022/01/15 00:56:09;;;;;;;;;;;;;;;;;;5073383;28;19994;-80
2022/01/15 00:58:36;;;;;;;;;;;;;;;;;;5073252;28;19950;-80
2022/01/15 01:01:03;;;;;;;;;;;;;;;;;;5073377;28;20041;-80
2022/01/15 01:03:30;;;;;;;;;;;;;;;;;;5073552;28;19990;-80
2022/01/15 01:05:57;;;;;;;;;;;;;;;;;;5073444;28;20045;-81
2022/01/15 01:08:24;;;;;;;;;;;;;;;;;;5073324;28;20063;-80
2022/01/15 01:10:56;;;;;;;;;;;;;;;;;;5073409;28;20035;-80
2022/01/15 01:24:18;;;;;;;;;;;;;;;;;;5076197;28;20321;-80
2022/01/15 01:26:50;;;;;;;;;;;;;;;;;;5076944;28;20401;-81
2022/01/15 01:29:28;;;;;;;;;;;;;;;;;;5077249;28;19952;-81
2022/01/15 01:32:01;;;;;;;;;;;;;;;;;;5076945;28;20277;-80
2022/01/15 01:34:30;;;;;;;;;;;;;;;;;;5077191;28;19953;-80
2022/01/15 01:37:03;;;;;;;;;;;;;;;;;;5076920;28;20343;-81
2022/01/15 01:39:39;;;;;;;;;;;;;;;;;;5076962;28;19950;-80
2022/01/15 01:42:12;;;;;;;;;;;;;;;;;;5076861;28;19954;-80
2022/01/15 01:44:41;;;;;;;;;;;;;;;;;;5076456;28;20408;-80
2022/01/15 01:47:20;;;;;;;;;;;;;;;;;;5076721;28;20444;-80
2022/01/15 01:49:47;;;;;;;;;;;;;;;;;;5076375;28;20442;-80
2022/01/15 01:52:14;;;;;;;;;;;;;;;;;;5077007;28;20035;-80
2022/01/15 01:54:41;;;;;;;;;;;;;;;;;;5076427;28;20061;-80
2022/01/15 01:57:08;;;;;;;;;;;;;;;;;;5076467;28;20037;-80
2022/01/15 01:59:35;;;;;;;;;;;;;;;;;;5076697;28;20037;-81
2022/01/15 02:02:03;;;;;;;;;;;;;;;;;;5076472;28;20462;-80
2022/01/15 02:04:30;;;;;;;;;;;;;;;;;;5076551;28;19973;-80
2022/01/15 02:06:57;;;;;;;;;;;;;;;;;;5076377;28;20014;-81
2022/01/15 02:09:24;;;;;;;;;;;;;;;;;;5076262;28;20107;-80
2022/01/15 02:11:51;;;;;;;;;;;;;;;;;;5076458;28;19961;-80
2022/01/15 02:14:18;;;;;;;;;;;;;;;;;;5089503;28;20553;-81
2022/01/15 02:16:45;;;;;;;;;;;;;;;;;;5096549;28;20053;-81
2022/01/15 02:19:12;;;;;;;;;;;;;;;;;;5096550;28;19990;-80
2022/01/15 02:24:24;;;;;;;;;;;;;;;;;;5096438;28;19938;-80
2022/01/15 02:26:51;;;;;;;;;;;;;;;;;;5096222;28;20492;-80
2022/01/15 02:29:18;;;;;;;;;;;;;;;;;;5096049;28;20050;-80
2022/01/15 02:31:45;;;;;;;;;;;;;;;;;;5096235;28;19955;-80
2022/01/15 02:34:12;;;;;;;;;;;;;;;;;;5096211;28;19952;-80
2022/01/15 02:36:39;;;;;;;;;;;;;;;;;;5096013;28;20371;-80
2022/01/15 02:39:06;;;;;;;;;;;;;;;;;;5096288;28;20042;-80
2022/01/15 02:41:33;;;;;;;;;;;;;;;;;;5095971;28;20486;-80
2022/01/15 02:44:00;;;;;;;;;;;;;;;;;;5096105;28;20056;-80
2022/01/15 02:48:00;;;;;;;;;;;;;;;;;;5088203;28;20138;-80
2022/01/15 02:49:22;;;;;;;;;;;;;;;;;;5064572;28;19965;-80
2022/01/15 02:51:49;;;;;;;;;;;;;;;;;;5075404;28;19996;-80
2022/01/15 02:54:16;;;;;;;;;;;;;;;;;;5075614;28;20415;-80
2022/01/15 02:56:43;;;;;;;;;;;;;;;;;;5075431;28;20037;-80
2022/01/15 02:59:10;;;;;;;;;;;;;;;;;;5075532;28;20035;-80
2022/01/15 03:01:37;;;;;;;;;;;;;;;;;;5075398;28;19959;-80
2022/01/15 03:04:04;;;;;;;;;;;;;;;;;;5075608;28;20031;-80
2022/01/15 03:06:31;;;;;;;;;;;;;;;;;;5075417;28;19948;-80
2022/01/15 03:08:58;;;;;;;;;;;;;;;;;;5075151;28;20068;-80
2022/01/15 03:11:27;;;;;;;;;;;;;;;;;;5075189;28;20034;-80
2022/01/15 03:13:54;;;;;;;;;;;;;;;;;;5075170;28;19952;-80
2022/01/15 03:16:21;;;;;;;;;;;;;;;;;;5075052;28;20044;-80
2022/01/15 03:18:48;;;;;;;;;;;;;;;;;;5075213;28;20039;-80
2022/01/15 03:21:15;;;;;;;;;;;;;;;;;;5073930;28;20489;-80
2022/01/15 03:23:42;;;;;;;;;;;;;;;;;;5061088;28;20037;-80
2022/01/15 03:26:11;;;;;;;;;;;;;;;;;;5054779;28;20025;-80
2022/01/15 03:28:38;;;;;;;;;;;;;;;;;;5054369;28;19959;-80
2022/01/15 03:31:06;;;;;;;;;;;;;;;;;;5056701;28;19945;-80
2022/01/15 03:33:33;;;;;;;;;;;;;;;;;;5074964;28;19984;-81
2022/01/15 03:36:00;;;;;;;;;;;;;;;;;;5074604;28;20466;-80
2022/01/15 03:38:27;;;;;;;;;;;;;;;;;;5074822;28;20031;-80
2022/01/15 03:40:54;;;;;;;;;;;;;;;;;;5073982;28;20037;-80
2022/01/15 03:43:21;;;;;;;;;;;;;;;;;;5074592;28;19959;-80
2022/01/15 03:45:48;;;;;;;;;;;;;;;;;;5074406;28;20422;-80
2022/01/15 03:48:15;;;;;;;;;;;;;;;;;;5074599;28;20064;-80
2022/01/15 03:50:42;;;;;;;;;;;;;;;;;;5074175;28;20059;-80
2022/01/15 03:53:09;;;;;;;;;;;;;;;;;;5074286;28;20052;-80
2022/01/15 03:55:36;;;;;;;;;;;;;;;;;;5074186;28;20030;-80
2022/01/15 03:58:03;;;;;;;;;;;;;;;;;;5074458;28;20368;-80
2022/01/15 04:00:30;;;;;;;;;;;;;;;;;;5074233;28;20036;-81
2022/01/15 04:02:57;;;;;;;;;;;;;;;;;;5074296;28;20042;-80
2022/01/15 04:05:24;;;;;;;;;;;;;;;;;;5074051;28;19952;-80
2022/01/15 04:07:52;;;;;;;;;;;;;;;;;;5074134;28;19966;-81
2022/01/15 04:10:19;;;;;;;;;;;;;;;;;;5073507;28;20392;-80
2022/01/15 04:12:46;;;;;;;;;;;;;;;;;;5074218;28;20033;-81
2022/01/15 04:15:13;;;;;;;;;;;;;;;;;;5073813;28;20002;-80
2022/01/15 04:17:40;;;;;;;;;;;;;;;;;;5074060;28;19953;-81
2022/01/15 04:20:07;;;;;;;;;;;;;;;;;;5073872;28;20402;-80
2022/01/15 04:22:34;;;;;;;;;;;;;;;;;;5073914;28;20035;-81
2022/01/15 04:25:01;;;;;;;;;;;;;;;;;;5073686;28;20029;-81
2022/01/15 04:27:28;;;;;;;;;;;;;;;;;;5073718;28;20035;-80
2022/01/15 04:29:56;;;;;;;;;;;;;;;;;;5073803;28;20022;-81
2022/01/15 04:32:23;;;;;;;;;;;;;;;;;;5073853;28;19970;-81
2022/01/15 04:34:50;;;;;;;;;;;;;;;;;;5073719;28;20036;-81
2022/01/15 04:37:18;;;;;;;;;;;;;;;;;;5073593;28;20494;-81
2022/01/15 04:39:45;;;;;;;;;;;;;;;;;;5073503;28;19950;-81
2022/01/15 04:42:12;;;;;;;;;;;;;;;;;;5073605;28;20430;-80
2022/01/15 04:44:39;;;;;;;;;;;;;;;;;;5073692;28;20046;-80
2022/01/15 04:47:06;;;;;;;;;;;;;;;;;;5073634;28;19953;-81
2022/01/15 04:49:33;;;;;;;;;;;;;;;;;;5073345;28;20014;-80
2022/01/15 04:52:00;;;;;;;;;;;;;;;;;;5073343;28;20054;-81
2022/01/15 04:54:27;;;;;;;;;;;;;;;;;;5073768;28;20033;-80
2022/01/15 04:56:54;;;;;;;;;;;;;;;;;;5073475;28;20045;-80
2022/01/15 04:59:23;;;;;;;;;;;;;;;;;;5073332;28;20468;-80
2022/01/15 05:01:50;;;;;;;;;;;;;;;;;;5073433;28;19955;-80
2022/01/15 05:04:17;;;;;;;;;;;;;;;;;;5073125;28;20376;-80
2022/01/15 05:06:44;;;;;;;;;;;;;;;;;;5073334;28;20031;-80
2022/01/15 05:09:11;;;;;;;;;;;;;;;;;;5073133;28;20439;-80
2022/01/15 05:11:47;;;;;;;;;;;;;;;;;;5073246;28;19958;-80
2022/01/15 05:14:14;;;;;;;;;;;;;;;;;;5073331;28;19953;-80
2022/01/15 05:16:41;;;;;;;;;;;;;;;;;;5073233;28;20381;-80
2022/01/15 05:19:08;;;;;;;;;;;;;;;;;;5073139;28;20038;-80
2022/01/15 05:21:35;;;;;;;;;;;;;;;;;;5073075;28;20037;-80
2022/01/15 05:24:02;;;;;;;;;;;;;;;;;;5073301;28;19949;-80
2022/01/15 05:26:29;;;;;;;;;;;;;;;;;;5073074;28;20040;-81
2022/01/15 05:28:56;;;;;;;;;;;;;;;;;;5073176;28;20048;-80
2022/01/15 05:31:23;;;;;;;;;;;;;;;;;;5073081;28;20004;-81
2022/01/15 05:33:50;;;;;;;;;;;;;;;;;;5072994;28;20055;-81
2022/01/15 05:36:17;;;;;;;;;;;;;;;;;;5073240;28;20043;-80
2022/01/15 05:38:44;;;;;;;;;;;;;;;;;;5073011;28;20474;-80
2022/01/15 05:41:11;;;;;;;;;;;;;;;;;;5073194;28;19952;-80
2022/01/15 05:43:38;;;;;;;;;;;;;;;;;;5072995;28;20206;-80
2022/01/15 05:46:05;;;;;;;;;;;;;;;;;;5072973;28;19957;-80
2022/01/15 05:48:32;;;;;;;;;;;;;;;;;;5073148;28;20071;-81
2022/01/15 05:51:00;;;;;;;;;;;;;;;;;;5072672;28;20058;-80
2022/01/15 05:53:27;;;;;;;;;;;;;;;;;;5072874;28;19958;-80
2022/01/15 05:55:53;;;;;;;;;;;;;;;;;;5072941;28;20036;-80
2022/01/15 05:58:20;;;;;;;;;;;;;;;;;;5072891;28;20050;-81
2022/01/15 06:00:47;;;;;;;;;;;;;;;;;;5072788;28;19952;-80
2022/01/15 06:03:14;;;;;;;;;;;;;;;;;;5073025;28;20033;-80
2022/01/15 06:05:41;;;;;;;;;;;;;;;;;;5076093;28;20059;-80
2022/01/15 06:08:08;;;;;;;;;;;;;;;;;;5076932;28;20088;-81
2022/01/15 06:10:36;;;;;;;;;;;;;;;;;;5076730;28;20008;-81
2022/01/15 06:13:03;;;;;;;;;;;;;;;;;;5076576;28;19947;-81
2022/01/15 06:15:30;;;;;;;;;;;;;;;;;;5076001;28;20045;-80
2022/01/15 06:17:57;;;;;;;;;;;;;;;;;;5076336;28;20038;-81
2022/01/15 06:20:24;;;;;;;;;;;;;;;;;;5076276;28;19949;-81
2022/01/15 06:22:51;;;;;;;;;;;;;;;;;;5075974;28;20408;-81
2022/01/15 06:25:18;;;;;;;;;;;;;;;;;;5076092;28;20018;-81
2022/01/15 06:27:45;;;;;;;;;;;;;;;;;;5075870;28;20041;-81
2022/01/15 06:30:12;;;;;;;;;;;;;;;;;;5075926;28;20322;-81
2022/01/15 06:32:39;;;;;;;;;;;;;;;;;;5076484;28;20041;-81
2022/01/15 06:35:06;;;;;;;;;;;;;;;;;;5076203;28;20431;-81
2022/01/15 06:37:33;;;;;;;;;;;;;;;;;;5076028;28;20037;-80
2022/01/15 06:40:00;;;;;;;;;;;;;;;;;;5075763;28;20056;-81
2022/01/15 06:42:27;;;;;;;;;;;;;;;;;;5075793;28;20497;-81
2022/01/15 06:44:54;;;;;;;;;;;;;;;;;;5075951;28;19953;-81
2022/01/15 06:47:21;;;;;;;;;;;;;;;;;;5075733;28;20462;-81
2022/01/15 06:49:48;;;;;;;;;;;;;;;;;;5075694;28;19975;-81
2022/01/15 06:52:15;;;;;;;;;;;;;;;;;;5075807;28;20045;-81
2022/01/15 06:54:42;;;;;;;;;;;;;;;;;;5075521;28;20354;-81
2022/01/15 06:57:09;;;;;;;;;;;;;;;;;;5075294;28;20033;-80
2022/01/15 06:59:36;;;;;;;;;;;;;;;;;;5075256;28;20063;-80
2022/01/15 07:02:05;;;;;;;;;;;;;;;;;;5075549;28;20033;-80
2022/01/15 07:04:32;;;;;;;;;;;;;;;;;;5075657;28;19963;-80
2022/01/15 07:06:59;;;;;;;;;;;;;;;;;;5075629;28;20033;-80
2022/01/15 07:09:26;;;;;;;;;;;;;;;;;;5075357;28;20070;-80
2022/01/15 07:11:53;;;;;;;;;;;;;;;;;;5075286;28;20626;-80
2022/01/15 07:14:20;;;;;;;;;;;;;;;;;;5075441;28;20046;-81
2022/01/15 07:16:47;;;;;;;;;;;;;;;;;;5074632;28;20051;-81
2022/01/15 07:19:14;;;;;;;;;;;;;;;;;;5075547;28;20036;-80
2022/01/15 07:21:41;;;;;;;;;;;;;;;;;;5075287;28;20045;-82
2022/01/15 07:24:08;;;;;;;;;;;;;;;;;;5075059;28;20391;-80
2022/01/15 07:26:35;;;;;;;;;;;;;;;;;;5075435;28;20071;-81
2022/01/15 07:29:02;;;;;;;;;;;;;;;;;;5075113;28;19965;-80
2022/01/15 07:31:29;;;;;;;;;;;;;;;;;;5075197;28;19952;-80
2022/01/15 07:33:56;;;;;;;;;;;;;;;;;;5075049;28;20045;-80
2022/01/15 07:36:23;;;;;;;;;;;;;;;;;;5075477;28;19950;-80
2022/01/15 07:38:50;;;;;;;;;;;;;;;;;;5074676;28;20043;-80
2022/01/15 07:41:17;;;;;;;;;;;;;;;;;;5074427;28;20394;-80
2022/01/15 07:43:44;;;;;;;;;;;;;;;;;;5073391;28;20038;-80
2022/01/15 07:46:11;;;;;;;;;;;;;;;;;;5072510;28;20055;-80
2022/01/15 07:48:38;;;;;;;;;;;;;;;;;;5072711;28;20393;-80
2022/01/15 07:51:05;;;;;;;;;;;;;;;;;;5072661;28;20004;-80
2022/01/15 07:53:32;;;;;;;;;;;;;;;;;;5072895;28;19946;-80
2022/01/15 07:55:59;;;;;;;;;;;;;;;;;;5072636;28;19973;-80
2022/01/15 07:58:26;;;;;;;;;;;;;;;;;;5074351;28;20047;-80
2022/01/15 08:00:53;;;;;;;;;;;;;;;;;;5074717;28;20039;-80
2022/01/15 08:03:20;;;;;;;;;;;;;;;;;;5074369;28;20041;-80
2022/01/15 08:05:47;;;;;;;;;;;;;;;;;;5074893;28;20390;-80
2022/01/15 08:08:15;;;;;;;;;;;;;;;;;;5075111;28;20029;-81
2022/01/15 08:10:42;;;;;;;;;;;;;;;;;;5074846;28;19971;-80
2022/01/15 08:13:09;;;;;;;;;;;;;;;;;;5074740;28;20041;-81
2022/01/15 08:15:36;;;;;;;;;;;;;;;;;;5074740;28;20049;-81
2022/01/15 08:18:04;;;;;;;;;;;;;;;;;;5074369;28;20046;-80
2022/01/15 08:20:31;;;;;;;;;;;;;;;;;;5074376;28;19994;-80
2022/01/15 08:22:58;;;;;;;;;;;;;;;;;;5073702;28;20040;-81
2022/01/15 08:25:27;;;;;;;;;;;;;;;;;;5074077;28;19996;-80
2022/01/15 08:27:54;;;;;;;;;;;;;;;;;;5073420;28;19956;-81
2022/01/15 08:30:21;;;;;;;;;;;;;;;;;;5074010;28;19966;-80
2022/01/15 08:32:48;;;;;;;;;;;;;;;;;;5073311;28;20049;-80
2022/01/15 08:35:15;;;;;;;;;;;;;;;;;;5074090;28;20044;-81
2022/01/15 08:37:42;;;;;;;;;;;;;;;;;;5074231;28;20483;-80
2022/01/15 08:40:09;;;;;;;;;;;;;;;;;;5073991;28;20032;-81
2022/01/15 08:42:36;;;;;;;;;;;;;;;;;;5073525;28;20048;-82
2022/01/15 08:45:03;;;;;;;;;;;;;;;;;;5073550;28;19990;-81
2022/01/15 08:47:30;;;;;;;;;;;;;;;;;;5073496;28;19952;-81
2022/01/15 08:49:57;;;;;;;;;;;;;;;;;;5073373;28;19971;-82
2022/01/15 08:52:24;;;;;;;;;;;;;;;;;;5073660;28;20375;-81
2022/01/15 08:54:51;;;;;;;;;;;;;;;;;;5073568;28;20051;-81
2022/01/15 08:57:18;;;;;;;;;;;;;;;;;;5073931;28;20393;-81
2022/01/15 08:59:45;;;;;;;;;;;;;;;;;;5073655;28;20040;-81
2022/01/15 09:02:12;;;;;;;;;;;;;;;;;;5073339;28;19951;-82
2022/01/15 09:04:39;;;;;;;;;;;;;;;;;;5073295;28;20462;-81
2022/01/15 09:07:08;;;;;;;;;;;;;;;;;;5073474;28;20025;-81
2022/01/15 09:09:35;;;;;;;;;;;;;;;;;;5072933;28;20309;-81
2022/01/15 09:12:02;;;;;;;;;;;;;;;;;;5073358;28;20045;-82
2022/01/15 09:14:29;;;;;;;;;;;;;;;;;;5073101;28;19924;-82
2022/01/15 09:16:56;;;;;;;;;;;;;;;;;;5073344;28;19956;-81
2022/01/15 09:19:23;;;;;;;;;;;;;;;;;;5072643;28;20015;-81
2022/01/15 09:21:53;;;;;;;;;;;;;;;;;;5052673;28;20002;-82
2022/01/15 09:24:20;;;;;;;;;;;;;;;;;;5052776;28;20042;-81
2022/01/15 09:26:59;;;;;;;;;;;;;;;;;;5052911;28;20383;-81
2022/01/15 09:32:11;;;;;;;;;;;;;;;;;;5053171;28;20085;-82
2022/01/15 09:34:38;;;;;;;;;;;;;;;;;;5053043;28;20126;-81
2022/01/15 09:37:06;;;;;;;;;;;;;;;;;;5053231;28;19995;-82
2022/01/15 09:39:33;;;;;;;;;;;;;;;;;;5054361;28;19925;-81
2022/01/15 09:42:00;;;;;;;;;;;;;;;;;;5057140;28;19958;-81
2022/01/15 09:44:27;;;;;;;;;;;;;;;;;;5057108;28;19943;-81
2022/01/15 09:46:55;;;;;;;;;;;;;;;;;;5056693;28;20392;-82
2022/01/15 09:49:22;;;;;;;;;;;;;;;;;;5056485;28;19925;-81
2022/01/15 09:51:49;;;;;;;;;;;;;;;;;;5056830;28;20404;-83
2022/01/15 09:54:16;;;;;;;;;;;;;;;;;;5056901;28;20003;-81
2022/01/15 09:56:43;;;;;;;;;;;;;;;;;;5056826;28;20039;-81
2022/01/15 09:59:10;;;;;;;;;;;;;;;;;;5056531;28;20291;-82
2022/01/15 10:01:37;;;;;;;;;;;;;;;;;;5056835;28;20042;-82
2022/01/15 10:04:04;;;;;;;;;;;;;;;;;;5056504;28;20344;-81
2022/01/15 10:06:31;;;;;;;;;;;;;;;;;;5056507;28;19924;-81
2022/01/15 10:08:58;;;;;;;;;;;;;;;;;;5056701;28;20012;-81
2022/01/15 10:11:25;;;;;;;;;;;;;;;;;;5056601;28;20051;-80
2022/01/15 10:13:52;;;;;;;;;;;;;;;;;;5056258;28;20016;-83
2022/01/15 10:16:19;;;;;;;;;;;;;;;;;;5056231;28;20047;-81
2022/01/15 10:18:47;;;;;;;;;;;;;;;;;;5056225;28;20294;-83
2022/01/15 10:21:14;;;;;;;;;;;;;;;;;;5056215;28;19955;-81
2022/01/15 10:23:41;;;;;;;;;;;;;;;;;;5056410;28;20037;-82
2022/01/15 10:26:08;;;;;;;;;;;;;;;;;;5056185;28;20041;-82
2022/01/15 10:28:35;;;;;;;;;;;;;;;;;;5056207;28;20037;-81
2022/01/15 10:31:02;;;;;;;;;;;;;;;;;;5055951;28;20405;-81
2022/01/15 10:33:29;;;;;;;;;;;;;;;;;;5055942;28;20049;-80
2022/01/15 10:35:56;;;;;;;;;;;;;;;;;;5056227;28;20040;-81
2022/01/15 10:38:23;;;;;;;;;;;;;;;;;;5056012;28;20047;-82
2022/01/15 10:40:51;;;;;;;;;;;;;;;;;;5055989;28;20055;-81
2022/01/15 10:43:18;;;;;;;;;;;;;;;;;;5055767;28;20003;-81
2022/01/15 10:45:45;;;;;;;;;;;;;;;;;;5055720;28;20048;-81
2022/01/15 10:48:12;;;;;;;;;;;;;;;;;;5055741;28;20028;-82
2022/01/15 10:50:39;;;;;;;;;;;;;;;;;;5055314;28;19977;-85
2022/01/15 10:53:06;;;;;;;;;;;;;;;;;;5055782;28;20471;-83
2022/01/15 10:55:33;;;;;;;;;;;;;;;;;;5055696;28;20071;-83
2022/01/15 10:58:00;;;;;;;;;;;;;;;;;;5055379;28;20007;-82
2022/01/15 11:00:27;;;;;;;;;;;;;;;;;;5055742;28;20063;-82
2022/01/15 11:02:54;;;;;;;;;;;;;;;;;;5055575;28;20039;-81
2022/01/15 11:05:21;;;;;;;;;;;;;;;;;;5055849;28;20080;-81
2022/01/15 11:07:48;;;;;;;;;;;;;;;;;;5055421;28;20056;-82
2022/01/15 11:10:15;;;;;;;;;;;;;;;;;;5055353;28;20046;-82
2022/01/15 11:12:42;;;;;;;;;;;;;;;;;;5055339;28;20058;-82
2022/01/15 11:15:09;;;;;;;;;;;;;;;;;;5055274;28;20036;-84
2022/01/15 11:17:36;;;;;;;;;;;;;;;;;;5062791;28;19981;-86
2022/01/15 11:20:03;;;;;;;;;;;;;;;;;;5059828;28;20366;-86
2022/01/15 11:22:31;;;;;;;;;;;;;;;;;;5059650;28;20039;-86
2022/01/15 11:24:58;;;;;;;;;;;;;;;;;;5060556;28;19989;-85
2022/01/15 11:27:25;;;;;;;;;;;;;;;;;;5058392;28;20054;-85
2022/01/15 11:29:54;;;;;;;;;;;;;;;;;;5056122;28;20059;-86
2022/01/15 11:32:21;;;;;;;;;;;;;;;;;;5057678;28;19955;-84
2022/01/15 11:34:48;;;;;;;;;;;;;;;;;;5055351;28;19998;-84
2022/01/15 11:37:15;;;;;;;;;;;;;;;;;;5056211;28;19979;-85
2022/01/15 11:39:42;;;;;;;;;;;;;;;;;;5055851;28;19953;-86
2022/01/15 11:42:09;;;;;;;;;;;;;;;;;;5055301;28;20021;-84
2022/01/15 11:44:36;;;;;;;;;;;;;;;;;;5054968;28;20415;-84
2022/01/15 11:47:03;;;;;;;;;;;;;;;;;;5055065;28;19981;-84
2022/01/15 11:49:31;;;;;;;;;;;;;;;;;;5054200;28;20061;-83
2022/01/15 11:51:58;;;;;;;;;;;;;;;;;;5054450;28;20045;-83
2022/01/15 11:54:25;;;;;;;;;;;;;;;;;;5054454;28;20041;-81
2022/01/15 11:56:52;;;;;;;;;;;;;;;;;;5054269;28;20454;-82
2022/01/15 11:59:19;;;;;;;;;;;;;;;;;;5054592;28;20030;-83
2022/01/15 12:01:46;;;;;;;;;;;;;;;;;;5053908;28;20177;-84
2022/01/15 12:04:13;;;;;;;;;;;;;;;;;;5055099;28;20040;-85
2022/01/15 12:06:40;;;;;;;;;;;;;;;;;;5054187;28;20042;-84
2022/01/15 12:09:07;;;;;;;;;;;;;;;;;;5054020;28;20121;-84
2022/01/15 12:11:35;;;;;;;;;;;;;;;;;;5054008;28;20146;-85
2022/01/15 12:14:02;;;;;;;;;;;;;;;;;;5053901;28;19949;-83
2022/01/15 12:16:36;;;;;;;;;;;;;;;;;;5054113;28;20046;-83
2022/01/15 12:19:03;;;;;;;;;;;;;;;;;;5054152;28;19980;-85
2022/01/15 12:21:30;;;;;;;;;;;;;;;;;;5054253;28;20033;-85
2022/01/15 12:23:57;;;;;;;;;;;;;;;;;;5053684;28;20048;-85
2022/01/15 12:26:24;;;;;;;;;;;;;;;;;;5053891;28;20034;-83
2022/01/15 12:28:51;;;;;;;;;;;;;;;;;;5053988;28;20043;-83
2022/01/15 12:31:18;;;;;;;;;;;;;;;;;;5054245;28;20062;-87
2022/01/15 12:33:45;;;;;;;;;;;;;;;;;;5054446;28;20048;-86
2022/01/15 12:36:12;;;;;;;;;;;;;;;;;;5054100;28;20049;-87
2022/01/15 12:38:39;;;;;;;;;;;;;;;;;;5053670;28;19949;-85
2022/01/15 12:41:06;;;;;;;;;;;;;;;;;;5053774;28;20040;-86
2022/01/15 12:43:34;;;;;;;;;;;;;;;;;;5054239;28;19952;-85
2022/01/15 12:46:01;;;;;;;;;;;;;;;;;;5053595;28;20040;-83
2022/01/15 12:48:28;;;;;;;;;;;;;;;;;;5053553;28;20041;-86
2022/01/15 12:50:54;;;;;;;;;;;;;;;;;;5053050;28;20066;-84
2022/01/15 12:53:22;;;;;;;;;;;;;;;;;;5053656;28;20047;-85
2022/01/15 12:55:49;;;;;;;;;;;;;;;;;;5054194;28;20045;-85
2022/01/15 12:58:16;;;;;;;;;;;;;;;;;;5054720;28;20039;-86
2022/01/15 13:00:43;;;;;;;;;;;;;;;;;;5053912;28;20481;-86
2022/01/15 13:03:10;;;;;;;;;;;;;;;;;;5053414;28;19979;-86
2022/01/15 13:05:37;;;;;;;;;;;;;;;;;;5053062;28;20044;-84
2022/01/15 13:08:04;;;;;;;;;;;;;;;;;;5053275;28;20400;-84
2022/01/15 13:10:31;;;;;;;;;;;;;;;;;;5053327;28;20060;-85
2022/01/15 13:12:58;;;;;;;;;;;;;;;;;;5053252;28;20013;-86
2022/01/15 13:15:25;;;;;;;;;;;;;;;;;;5056131;28;20046;-83
2022/01/15 13:17:52;;;;;;;;;;;;;;;;;;5057597;28;20083;-86
2022/01/15 13:20:19;;;;;;;;;;;;;;;;;;5057295;28;20042;-85
2022/01/15 13:22:46;;;;;;;;;;;;;;;;;;5057799;28;20045;-87
2022/01/15 13:25:13;;;;;;;;;;;;;;;;;;5057814;28;20394;-85
2022/01/15 13:27:40;;;;;;;;;;;;;;;;;;5057328;28;20054;-84
2022/01/15 13:30:07;;;;;;;;;;;;;;;;;;5057227;28;20058;-84
2022/01/15 13:32:34;;;;;;;;;;;;;;;;;;5057044;28;20002;-85
2022/01/15 13:35:01;;;;;;;;;;;;;;;;;;5057042;28;20039;-83
2022/01/15 13:37:28;;;;;;;;;;;;;;;;;;5057601;28;20058;-84
2022/01/15 13:39:55;;;;;;;;;;;;;;;;;;5056932;28;20033;-83
2022/01/15 13:42:22;;;;;;;;;;;;;;;;;;5056836;28;20038;-85
2022/01/15 13:44:49;;;;;;;;;;;;;;;;;;5056800;28;20025;-84
2022/01/15 13:47:16;;;;;;;;;;;;;;;;;;5057194;28;20369;-83
2022/01/15 13:55:09;;;;;;;;;;;;;;;;;;5047922;28;19951;-84
2022/01/15 13:57:36;;;;;;;;;;;;;;;;;;5056524;28;20463;-85
2022/01/15 14:00:03;;;;;;;;;;;;;;;;;;5056708;28;20053;-84
2022/01/15 14:02:30;;;;;;;;;;;;;;;;;;5056691;28;20104;-83
2022/01/15 14:04:57;;;;;;;;;;;;;;;;;;5056653;28;19950;-84
2022/01/15 14:07:24;;;;;;;;;;;;;;;;;;5056595;28;20054;-84
2022/01/15 14:09:51;;;;;;;;;;;;;;;;;;5056456;28;20051;-84
2022/01/15 14:12:18;;;;;;;;;;;;;;;;;;5056403;28;19971;-83
2022/01/15 14:14:45;;;;;;;;;;;;;;;;;;5056645;28;19981;-85
2022/01/15 14:17:12;;;;;;;;;;;;;;;;;;5056506;28;20042;-83
2022/01/15 14:19:49;;;;;;;;;;;;;;;;;;5056289;28;20032;-83
2022/01/15 14:22:16;;;;;;;;;;;;;;;;;;5056330;28;19952;-85
2022/01/15 14:24:43;;;;;;;;;;;;;;;;;;5055653;28;20026;-83
2022/01/15 14:27:10;;;;;;;;;;;;;;;;;;5056353;28;19972;-83
2022/01/15 14:29:37;;;;;;;;;;;;;;;;;;5056116;28;20043;-85
2022/01/15 14:32:04;;;;;;;;;;;;;;;;;;5056155;28;20064;-83
2022/01/15 14:34:31;;;;;;;;;;;;;;;;;;5055918;28;20374;-84
2022/01/15 14:36:58;;;;;;;;;;;;;;;;;;5055982;28;20048;-83
2022/01/15 14:39:25;;;;;;;;;;;;;;;;;;5055708;28;20401;-84
2022/01/15 14:41:52;;;;;;;;;;;;;;;;;;5055696;28;20052;-84
2022/01/15 14:44:19;;;;;;;;;;;;;;;;;;5055764;28;20034;-83
2022/01/15 14:46:46;;;;;;;;;;;;;;;;;;5055596;28;20051;-83
2022/01/15 14:49:13;;;;;;;;;;;;;;;;;;5055490;28;20046;-84
2022/01/15 14:51:40;;;;;;;;;;;;;;;;;;5055430;28;19970;-83
2022/01/15 14:54:07;;;;;;;;;;;;;;;;;;5055697;28;20036;-85
2022/01/15 14:56:34;;;;;;;;;;;;;;;;;;5055714;28;19954;-82
2022/01/15 14:59:01;;;;;;;;;;;;;;;;;;5055347;28;20042;-82
2022/01/15 15:01:30;;;;;;;;;;;;;;;;;;5055504;28;20061;-84
2022/01/15 15:04:00;;;;;;;;;;;;;;;;;;5055392;28;19951;-83
2022/01/15 15:06:27;;;;;;;;;;;;;;;;;;5054853;28;19925;-82
2022/01/15 15:08:54;;;;;;;;;;;;;;;;;;5055430;28;20044;-83
2022/01/15 15:11:21;;;;;;;;;;;;;;;;;;5055048;28;19969;-82
2022/01/15 15:13:48;;;;;;;;;;;;;;;;;;5055168;28;20040;-82
2022/01/15 15:16:15;;;;;;;;;;;;;;;;;;5055048;28;20475;-82
2022/01/15 15:18:42;;;;;;;;;;;;;;;;;;5054970;28;20035;-84
2022/01/15 15:21:09;;;;;;;;;;;;;;;;;;5054871;28;20427;-84
2022/01/15 15:23:36;;;;;;;;;;;;;;;;;;5055208;28;20058;-84
2022/01/15 15:26:03;;;;;;;;;;;;;;;;;;5055392;28;20050;-85
2022/01/15 15:28:30;;;;;;;;;;;;;;;;;;5055000;28;20045;-84
2022/01/15 15:30:58;;;;;;;;;;;;;;;;;;5054849;28;20068;-83
2022/01/15 15:33:27;;;;;;;;;;;;;;;;;;5055077;28;19959;-82
2022/01/15 15:35:54;;;;;;;;;;;;;;;;;;5054615;28;20001;-84
2022/01/15 15:38:21;;;;;;;;;;;;;;;;;;5053947;28;19965;-84
2022/01/15 15:40:48;;;;;;;;;;;;;;;;;;5054828;28;20014;-84
2022/01/15 15:43:15;;;;;;;;;;;;;;;;;;5054620;28;20480;-83
2022/01/15 15:45:42;;;;;;;;;;;;;;;;;;5054588;28;20037;-84
2022/01/15 15:48:09;;;;;;;;;;;;;;;;;;5054641;28;20025;-84
2022/01/15 15:50:36;;;;;;;;;;;;;;;;;;5054401;28;20065;-83
2022/01/15 15:53:03;;;;;;;;;;;;;;;;;;5054755;28;20375;-83
2022/01/15 15:55:30;;;;;;;;;;;;;;;;;;5054866;28;20050;-84
2022/01/15 15:57:57;;;;;;;;;;;;;;;;;;5054563;28;20047;-84
2022/01/15 16:00:24;;;;;;;;;;;;;;;;;;5054461;28;20054;-82
2022/01/15 16:02:51;;;;;;;;;;;;;;;;;;5054287;28;19996;-83
2022/01/15 16:05:18;;;;;;;;;;;;;;;;;;5054440;28;19958;-82
2022/01/15 16:07:45;;;;;;;;;;;;;;;;;;5054283;28;20461;-82
2022/01/15 16:10:14;;;;;;;;;;;;;;;;;;5060138;28;20042;-83
2022/01/15 16:12:41;;;;;;;;;;;;;;;;;;5073588;28;19966;-83
2022/01/15 16:15:08;;;;;;;;;;;;;;;;;;5074384;28;19989;-83
2022/01/15 16:17:35;;;;;;;;;;;;;;;;;;5073983;28;20040;-83
2022/01/15 16:20:02;;;;;;;;;;;;;;;;;;5073963;28;20047;-83
2022/01/15 16:22:29;;;;;;;;;;;;;;;;;;5074101;28;19996;-84
2022/01/15 16:24:56;;;;;;;;;;;;;;;;;;5074156;28;20032;-83
2022/01/15 16:27:23;;;;;;;;;;;;;;;;;;5073953;28;20036;-86
2022/01/15 16:29:52;;;;;;;;;;;;;;;;;;5073863;28;20048;-80
2022/01/15 16:32:19;;;;;;;;;;;;;;;;;;5073364;28;20004;-82
2022/01/15 16:34:46;;;;;;;;;;;;;;;;;;5073382;28;19943;-83
2022/01/15 16:37:13;;;;;;;;;;;;;;;;;;5073920;28;19974;-85
2022/01/15 16:39:40;;;;;;;;;;;;;;;;;;5073694;28;20450;-87
2022/01/15 16:42:07;;;;;;;;;;;;;;;;;;5073313;28;20042;-84
2022/01/15 16:44:34;;;;;;;;;;;;;;;;;;5073323;28;20455;-85
2022/01/15 16:47:01;;;;;;;;;;;;;;;;;;5073948;28;19991;-85
2022/01/15 16:49:28;;;;;;;;;;;;;;;;;;5073021;28;20385;-84
2022/01/15 16:51:55;;;;;;;;;;;;;;;;;;5073510;28;19969;-85
2022/01/15 16:54:22;;;;;;;;;;;;;;;;;;5073497;28;20448;-86
2022/01/15 16:56:51;;;;;;;;;;;;;;;;;;5072429;28;20038;-85
2022/01/15 16:59:18;;;;;;;;;;;;;;;;;;5072980;28;19942;-85
2022/01/15 17:01:45;;;;;;;;;;;;;;;;;;5073210;28;20001;-85
2022/01/15 17:04:12;;;;;;;;;;;;;;;;;;5073076;28;20491;-83
2022/01/15 17:06:39;;;;;;;;;;;;;;;;;;5073433;28;20050;-83
2022/01/15 17:09:06;;;;;;;;;;;;;;;;;;5073196;28;20053;-85